Time;durP1;ratioP1;P1;durP2;ratioP2;P2;SDS_P1;SDS_P2;PMS_P1;PMS_P2;Temp;Humidity;BMP_temperature;BMP_pressure;BME280_temperature;BME280_humidity;BME280_pressure;Samples;Min_cycle;Max_cycle;Signal;HPM_P1;HPM_P2
2022/08/14 00:00:36;;;;;;;28.63;7.43;;;25.20;99.90;;;;;;5118546;28;20024;-75
2022/08/14 00:03:02;;;;;;;27.13;7.68;;;25.20;99.90;;;;;;5116331;28;20032;-75
2022/08/14 00:05:28;;;;;;;29.60;8.10;;;25.30;99.90;;;;;;5117758;28;20015;-75
2022/08/14 00:07:54;;;;;;;27.13;7.57;;;25.40;99.90;;;;;;5110549;28;20020;-75
2022/08/14 00:10:21;;;;;;;20.98;7.28;;;25.40;99.90;;;;;;5099495;28;20024;-74
2022/08/14 00:12:52;;;;;;;23.77;7.15;;;25.50;99.90;;;;;;5115987;28;20030;-75
2022/08/14 00:15:29;;;;;;;27.10;7.05;;;25.60;99.90;;;;;;5116787;28;20048;-75
2022/08/14 00:17:56;;;;;;;20.23;5.78;;;25.60;99.90;;;;;;5116489;28;20016;-75
2022/08/14 00:20:25;;;;;;;18.15;6.35;;;25.60;99.90;;;;;;5117949;28;20072;-75
2022/08/14 00:22:51;;;;;;;27.30;7.83;;;25.70;99.90;;;;;;5117194;28;20081;-75
2022/08/14 00:25:17;;;;;;;25.08;6.03;;;25.60;99.90;;;;;;5117233;28;20064;-75
2022/08/14 00:27:44;;;;;;;27.98;6.20;;;25.70;99.90;;;;;;5117023;28;20035;-75
2022/08/14 00:30:11;;;;;;;19.08;5.40;;;25.70;99.90;;;;;;5108292;28;20103;-75
2022/08/14 00:32:38;;;;;;;22.75;6.07;;;25.70;99.90;;;;;;5113232;28;20024;-76
2022/08/14 00:35:06;;;;;;;22.33;6.30;;;25.80;99.90;;;;;;5117760;28;20072;-75
2022/08/14 00:37:32;;;;;;;20.27;4.97;;;25.70;99.90;;;;;;5112931;28;20035;-75
2022/08/14 00:39:59;;;;;;;25.30;6.88;;;25.60;99.90;;;;;;5114295;28;20076;-74
2022/08/14 00:42:27;;;;;;;24.65;6.32;;;25.60;99.90;;;;;;5117414;28;20024;-74
2022/08/14 00:44:54;;;;;;;28.15;6.63;;;25.50;99.90;;;;;;5117880;28;20047;-75
2022/08/14 00:47:23;;;;;;;22.42;5.43;;;25.50;99.90;;;;;;5116416;28;20038;-75
2022/08/14 00:49:52;;;;;;;24.98;5.28;;;25.40;99.90;;;;;;5115852;28;20023;-75
2022/08/14 00:52:19;;;;;;;24.42;6.75;;;25.30;99.90;;;;;;5115966;28;20030;-75
2022/08/14 00:54:55;;;;;;;21.40;6.57;;;25.20;99.90;;;;;;5116219;28;20020;-75
2022/08/14 00:57:23;;;;;;;20.02;6.20;;;25.20;99.90;;;;;;5116120;28;20023;-75
2022/08/14 00:59:50;;;;;;;18.45;5.78;;;25.10;99.90;;;;;;5112926;28;20038;-75
2022/08/14 01:02:18;;;;;;;24.98;5.65;;;25.10;99.90;;;;;;5103662;28;20028;-75
2022/08/14 01:04:45;;;;;;;23.10;6.40;;;25.00;99.90;;;;;;5115231;28;20065;-74
2022/08/14 01:07:16;;;;;;;23.52;6.45;;;25.00;99.90;;;;;;5116763;28;20032;-75
2022/08/14 01:09:43;;;;;;;24.27;6.30;;;24.90;99.90;;;;;;5115756;28;20039;-76
2022/08/14 01:12:10;;;;;;;23.58;6.30;;;24.80;99.90;;;;;;5109200;28;20076;-75
2022/08/14 01:14:36;;;;;;;16.83;5.95;;;24.80;99.90;;;;;;5112137;28;20107;-76
2022/08/14 01:17:02;;;;;;;21.88;7.35;;;24.80;99.90;;;;;;5110157;28;20063;-76
2022/08/14 01:22:14;;;;;;;20.42;7.57;;;24.70;99.90;;;;;;5117281;28;20464;-74
2022/08/14 01:24:41;;;;;;;18.40;9.07;;;24.60;99.90;;;;;;5117076;28;20040;-75
2022/08/14 01:27:12;;;;;;;21.08;11.15;;;24.50;99.90;;;;;;5116846;28;20178;-74
2022/08/14 01:29:38;;;;;;;17.25;10.25;;;24.40;99.90;;;;;;5111428;28;20373;-75
2022/08/14 01:32:05;;;;;;;28.38;11.85;;;24.30;99.90;;;;;;5117105;28;20059;-74
2022/08/14 01:34:31;;;;;;;16.67;10.35;;;24.10;99.90;;;;;;5105234;28;20045;-75
2022/08/14 01:36:59;;;;;;;20.77;11.45;;;24.00;99.90;;;;;;5117089;28;20031;-76
2022/08/14 01:39:26;;;;;;;19.15;11.43;;;23.80;99.90;;;;;;5115627;28;20016;-75
2022/08/14 01:41:55;;;;;;;23.25;11.82;;;23.70;99.90;;;;;;5115814;28;20035;-74
2022/08/14 01:44:24;;;;;;;21.17;12.90;;;23.60;99.90;;;;;;5109799;28;20058;-75
2022/08/14 01:46:53;;;;;;;17.73;12.10;;;23.60;99.90;;;;;;5119417;28;20059;-75
2022/08/14 01:49:20;;;;;;;21.25;13.00;;;23.40;99.90;;;;;;5124621;27;20016;-73
2022/08/14 01:51:47;;;;;;;22.48;13.52;;;23.40;99.90;;;;;;5120987;27;20099;-75
2022/08/14 01:54:19;;;;;;;21.27;13.48;;;23.30;99.90;;;;;;5120776;28;20043;-75
2022/08/14 01:56:45;;;;;;;22.17;14.20;;;23.20;99.90;;;;;;5110312;28;20012;-74
2022/08/14 01:59:18;;;;;;;21.25;14.27;;;23.10;99.90;;;;;;5119434;28;20039;-76
2022/08/14 02:01:45;;;;;;;21.00;14.27;;;23.10;99.90;;;;;;5117881;28;20387;-76
2022/08/14 02:04:11;;;;;;;21.98;14.05;;;23.00;99.90;;;;;;5120084;28;20020;-75
2022/08/14 02:06:37;;;;;;;22.35;13.40;;;23.00;99.90;;;;;;5120103;28;20038;-75
2022/08/14 02:09:07;;;;;;;18.52;13.43;;;23.00;99.90;;;;;;5119403;28;20065;-74
2022/08/14 02:11:35;;;;;;;20.42;12.98;;;22.90;99.90;;;;;;5118231;28;20023;-76
2022/08/14 02:14:09;;;;;;;24.35;14.10;;;22.90;99.90;;;;;;5118917;28;20403;-74
2022/08/14 02:16:41;;;;;;;19.05;13.63;;;22.80;99.90;;;;;;5111386;28;20031;-74
2022/08/14 02:19:22;;;;;;;20.98;14.50;;;22.80;99.90;;;;;;5112546;28;20020;-75
2022/08/14 02:21:53;;;;;;;22.13;13.57;;;22.90;99.90;;;;;;5117922;28;20406;-73
2022/08/14 02:24:21;;;;;;;24.58;13.05;;;22.90;99.90;;;;;;5118655;28;20135;-74
2022/08/14 02:26:47;;;;;;;19.08;13.10;;;22.80;99.90;;;;;;5118274;28;20038;-75
2022/08/14 02:29:16;;;;;;;21.40;13.15;;;22.80;99.90;;;;;;5119992;27;20094;-75
2022/08/14 02:31:47;;;;;;;20.42;13.52;;;22.70;99.90;;;;;;5118762;28;20356;-75
2022/08/14 02:34:31;;;;;;;25.67;13.43;;;22.80;99.90;;;;;;5119019;28;20098;-74
2022/08/14 02:37:04;;;;;;;20.95;12.95;;;22.80;99.90;;;;;;5107874;28;20028;-75
2022/08/14 02:39:31;;;;;;;19.85;13.45;;;22.70;99.90;;;;;;5113649;28;20024;-74
2022/08/14 02:41:58;;;;;;;15.57;12.68;;;22.70;99.90;;;;;;5119810;28;20030;-74
2022/08/14 02:44:24;;;;;;;20.67;12.88;;;22.70;99.90;;;;;;5118392;28;20023;-76
2022/08/14 02:46:56;;;;;;;21.33;12.30;;;22.60;99.90;;;;;;5118317;28;20031;-76
2022/08/14 02:49:28;;;;;;;27.38;13.27;;;22.50;99.90;;;;;;5117566;28;20376;-74
2022/08/14 02:51:55;;;;;;;23.95;13.45;;;22.50;99.90;;;;;;5104020;28;20549;-75
2022/08/14 02:54:25;;;;;;;17.35;11.60;;;22.50;99.90;;;;;;5113649;28;20024;-75
2022/08/14 02:56:55;;;;;;;17.95;12.00;;;22.50;99.90;;;;;;5119506;28;20019;-76
2022/08/14 02:59:23;;;;;;;16.73;11.95;;;22.50;99.90;;;;;;5118095;28;20019;-75
2022/08/14 03:01:50;;;;;;;16.60;12.15;;;22.50;99.90;;;;;;5119099;28;20023;-75
2022/08/14 03:04:16;;;;;;;23.92;11.63;;;22.40;99.90;;;;;;5119443;28;20015;-75
2022/08/14 03:06:43;;;;;;;17.15;11.93;;;22.40;99.90;;;;;;5117866;28;20026;-75
2022/08/14 03:09:13;;;;;;;14.48;11.27;;;22.40;99.90;;;;;;5119262;28;20016;-76
2022/08/14 03:11:41;;;;;;;20.73;13.48;;;22.40;99.90;;;;;;5118476;28;20053;-75
2022/08/14 03:14:10;;;;;;;19.33;11.93;;;22.30;99.90;;;;;;5112558;28;20083;-75
2022/08/14 03:16:37;;;;;;;18.52;12.45;;;22.30;99.90;;;;;;5110554;28;20027;-75
2022/08/14 03:19:06;;;;;;;20.52;11.23;;;22.40;99.90;;;;;;5117419;28;20072;-75
2022/08/14 03:21:33;;;;;;;17.45;12.02;;;22.40;99.90;;;;;;5105159;28;20038;-74
2022/08/14 03:24:11;;;;;;;22.08;12.50;;;22.40;99.90;;;;;;5117130;28;20015;-75
2022/08/14 03:26:44;;;;;;;18.77;11.80;;;22.40;99.90;;;;;;5114479;28;20055;-74
2022/08/14 03:29:12;;;;;;;16.27;11.93;;;22.40;99.90;;;;;;5117210;28;20032;-74
2022/08/14 03:31:40;;;;;;;21.17;11.38;;;22.30;99.90;;;;;;5100082;28;20020;-75
2022/08/14 03:34:09;;;;;;;19.40;11.68;;;22.20;99.90;;;;;;5116791;28;20091;-74
2022/08/14 03:36:35;;;;;;;14.07;10.30;;;22.20;99.90;;;;;;5118494;28;20518;-75
2022/08/14 03:39:03;;;;;;;18.83;11.20;;;22.20;99.90;;;;;;5117601;28;20032;-75
2022/08/14 03:41:30;;;;;;;17.95;12.02;;;22.20;99.90;;;;;;5112229;28;20024;-74
2022/08/14 03:44:01;;;;;;;18.85;12.52;;;22.20;99.90;;;;;;5118852;28;20024;-74
2022/08/14 03:46:32;;;;;;;19.58;11.80;;;22.20;99.90;;;;;;5108753;28;20023;-74
2022/08/14 03:49:00;;;;;;;18.17;11.25;;;22.20;99.90;;;;;;5101038;28;20027;-74
2022/08/14 03:51:27;;;;;;;18.13;10.90;;;22.20;99.90;;;;;;5117361;28;20030;-75
2022/08/14 03:53:56;;;;;;;17.80;11.98;;;22.20;99.90;;;;;;5118457;28;20025;-73
2022/08/14 03:56:24;;;;;;;16.67;11.50;;;22.20;99.90;;;;;;5118059;28;20439;-75
2022/08/14 03:58:53;;;;;;;21.88;12.30;;;22.20;99.90;;;;;;5109511;28;20035;-74
2022/08/14 04:01:23;;;;;;;17.15;12.38;;;22.20;99.90;;;;;;5112616;28;20024;-73
2022/08/14 04:03:50;;;;;;;24.55;11.73;;;22.10;99.90;;;;;;5117180;28;20540;-76
2022/08/14 04:06:19;;;;;;;22.75;12.15;;;22.20;99.90;;;;;;5116722;28;20057;-74
2022/08/14 04:08:45;;;;;;;18.05;12.13;;;22.10;99.90;;;;;;5118033;28;20045;-75
2022/08/14 04:11:12;;;;;;;15.50;11.23;;;22.10;99.90;;;;;;5118087;27;20020;-75
2022/08/14 04:13:40;;;;;;;17.70;11.25;;;22.10;99.90;;;;;;5116835;28;20072;-74
2022/08/14 04:16:24;;;;;;;14.25;10.55;;;22.10;99.90;;;;;;5116566;28;20055;-74
2022/08/14 04:18:53;;;;;;;19.17;12.40;;;22.10;99.90;;;;;;5116194;28;20042;-74
2022/08/14 04:21:25;;;;;;;16.30;11.07;;;22.10;99.90;;;;;;5117922;28;20034;-75
2022/08/14 04:23:53;;;;;;;18.45;11.43;;;22.10;99.90;;;;;;5114284;27;20027;-75
2022/08/14 04:26:21;;;;;;;14.50;10.65;;;22.10;99.90;;;;;;5108325;28;20050;-74
2022/08/14 04:28:48;;;;;;;14.25;11.05;;;22.10;99.90;;;;;;5117498;28;20054;-75
2022/08/14 04:31:15;;;;;;;16.52;11.23;;;22.10;99.90;;;;;;5110151;28;20059;-75
2022/08/14 04:33:41;;;;;;;18.73;12.48;;;22.10;99.90;;;;;;5112111;28;20028;-74
2022/08/14 04:36:07;;;;;;;19.00;11.88;;;22.00;99.90;;;;;;5110200;28;20046;-75
2022/08/14 04:44:03;;;;;;;20.63;11.93;;;22.00;99.90;;;;;;5109344;28;20042;-76
2022/08/14 04:46:32;;;;;;;24.73;13.85;;;22.00;99.90;;;;;;5105185;28;20396;-75
2022/08/14 04:48:58;;;;;;;18.73;12.77;;;22.00;99.90;;;;;;5113562;28;20119;-75
2022/08/14 04:51:27;;;;;;;21.83;13.00;;;21.90;99.90;;;;;;5117710;28;20052;-75
2022/08/14 04:53:54;;;;;;;17.30;11.38;;;21.90;99.90;;;;;;5116214;28;20020;-75
2022/08/14 04:56:25;;;;;;;19.15;12.07;;;21.90;99.90;;;;;;5117348;28;20143;-74
2022/08/14 04:58:56;;;;;;;19.90;11.25;;;21.90;99.90;;;;;;5117421;28;20027;-75
2022/08/14 05:01:23;;;;;;;16.48;11.20;;;21.90;99.90;;;;;;5113701;28;20023;-74
2022/08/14 05:03:49;;;;;;;21.48;12.38;;;21.80;99.90;;;;;;5117370;28;20102;-73
2022/08/14 05:06:15;;;;;;;16.58;12.70;;;21.80;99.90;;;;;;5116120;28;20099;-75
2022/08/14 05:08:43;;;;;;;18.05;11.82;;;21.80;99.90;;;;;;5116207;28;20035;-75
2022/08/14 05:11:10;;;;;;;19.15;11.02;;;21.80;99.90;;;;;;5117349;28;20016;-75
2022/08/14 05:13:37;;;;;;;15.90;12.02;;;21.80;99.90;;;;;;5117551;28;20456;-75
2022/08/14 05:16:04;;;;;;;17.83;12.50;;;21.80;99.90;;;;;;5117356;28;20087;-74
2022/08/14 05:18:34;;;;;;;17.77;11.70;;;21.80;99.90;;;;;;5107625;28;20387;-75
2022/08/14 05:21:02;;;;;;;18.67;12.45;;;21.80;99.90;;;;;;5121211;28;20020;-75
2022/08/14 05:23:31;;;;;;;16.90;13.15;;;21.80;99.90;;;;;;5121336;28;20023;-75
2022/08/14 05:26:16;;;;;;;14.85;11.68;;;21.80;99.90;;;;;;5119631;28;20048;-75
2022/08/14 05:28:43;;;;;;;20.95;13.00;;;21.80;99.90;;;;;;5107262;28;20030;-75
2022/08/14 05:31:10;;;;;;;19.13;12.82;;;21.90;99.90;;;;;;5116765;28;20019;-75
2022/08/14 05:33:36;;;;;;;17.73;13.23;;;21.90;99.90;;;;;;5109057;28;20023;-75
2022/08/14 05:36:05;;;;;;;19.52;12.40;;;21.90;99.90;;;;;;5119595;28;20027;-75
2022/08/14 05:38:34;;;;;;;22.25;12.45;;;21.90;99.90;;;;;;5116273;28;20032;-74
2022/08/14 05:41:05;;;;;;;27.88;13.93;;;22.00;99.90;;;;;;5120069;28;20019;-76
2022/08/14 05:43:31;;;;;;;19.02;13.18;;;22.10;99.90;;;;;;5117876;28;20070;-74
2022/08/14 05:45:59;;;;;;;21.13;11.80;;;22.10;99.90;;;;;;5107694;28;20028;-75
2022/08/14 05:48:25;;;;;;;14.98;12.75;;;22.10;99.90;;;;;;5120742;28;20031;-74
2022/08/14 05:50:53;;;;;;;21.30;12.90;;;22.20;99.90;;;;;;5120356;28;20031;-75
2022/08/14 05:53:20;;;;;;;23.02;14.20;;;22.20;99.90;;;;;;5119350;28;20038;-75
2022/08/14 05:55:47;;;;;;;16.90;13.32;;;22.20;99.90;;;;;;5119500;28;20418;-75
2022/08/14 05:58:13;;;;;;;18.10;13.30;;;22.20;99.90;;;;;;5120495;28;20896;-74
2022/08/14 06:00:40;;;;;;;17.77;14.07;;;22.20;99.90;;;;;;5120693;28;20027;-75
2022/08/14 06:03:16;;;;;;;24.00;14.32;;;22.10;99.90;;;;;;5119118;28;20119;-76
2022/08/14 06:05:44;;;;;;;27.80;14.60;;;22.10;99.90;;;;;;5119443;28;20023;-74
2022/08/14 06:08:25;;;;;;;23.27;15.02;;;22.10;99.90;;;;;;5117741;28;20364;-75
2022/08/14 06:10:54;;;;;;;21.73;14.32;;;22.10;99.90;;;;;;5118349;28;20028;-75
2022/08/14 06:13:20;;;;;;;22.23;13.75;;;22.10;99.90;;;;;;5119429;28;20026;-75
2022/08/14 06:15:48;;;;;;;23.17;14.82;;;22.10;99.90;;;;;;5118679;28;20043;-75
2022/08/14 06:18:15;;;;;;;21.02;14.02;;;22.20;99.90;;;;;;5115162;28;20031;-75
2022/08/14 06:20:41;;;;;;;22.80;14.02;;;22.30;99.90;;;;;;5119118;28;20035;-75
2022/08/14 06:23:06;;;;;;;22.10;14.57;;;22.20;99.90;;;;;;5108367;28;20036;-75
2022/08/14 06:25:33;;;;;;;21.67;14.68;;;22.30;99.90;;;;;;5118402;28;20054;-74
2022/08/14 06:27:59;;;;;;;21.17;14.57;;;22.30;99.90;;;;;;5119695;28;20024;-75
2022/08/14 06:30:28;;;;;;;21.88;14.65;;;22.30;99.90;;;;;;5117794;28;20026;-75
2022/08/14 06:32:55;;;;;;;17.80;14.43;;;22.30;99.90;;;;;;5119871;28;20483;-75
2022/08/14 06:35:21;;;;;;;24.00;14.90;;;22.40;99.90;;;;;;5120132;28;20054;-75
2022/08/14 06:37:58;;;;;;;19.25;12.77;;;22.50;99.90;;;;;;5117310;28;20118;-75
2022/08/14 06:40:27;;;;;;;20.80;13.18;;;22.60;99.90;;;;;;5118815;28;20039;-74
2022/08/14 06:42:53;;;;;;;16.55;13.30;;;22.70;99.90;;;;;;5118296;28;20428;-75
2022/08/14 06:45:19;;;;;;;20.85;13.93;;;22.60;99.90;;;;;;5115606;28;20028;-74
2022/08/14 06:47:49;;;;;;;23.77;13.93;;;22.60;99.90;;;;;;5105920;28;20034;-76
2022/08/14 06:50:19;;;;;;;19.17;13.02;;;22.60;99.90;;;;;;5119653;28;20015;-75
2022/08/14 06:52:46;;;;;;;30.38;11.95;;;22.60;99.90;;;;;;5119608;28;20015;-75
2022/08/14 06:55:13;;;;;;;19.92;12.40;;;22.60;99.90;;;;;;5118450;28;20028;-75
2022/08/14 06:57:41;;;;;;;19.85;12.05;;;22.60;99.90;;;;;;5116283;28;20369;-75
2022/08/14 07:00:17;;;;;;;23.75;11.57;;;22.70;99.90;;;;;;5119844;28;20023;-75
2022/08/14 07:05:46;;;;;;;20.58;12.02;;;22.90;99.90;;;;;;5118894;28;20030;-75
2022/08/14 07:08:25;;;;;;;19.08;11.40;;;22.90;99.90;;;;;;5119429;28;20035;-76
2022/08/14 07:10:53;;;;;;;17.05;11.52;;;22.80;99.90;;;;;;5116886;28;20015;-75
2022/08/14 07:13:20;;;;;;;17.15;12.02;;;22.80;99.90;;;;;;5112675;28;20012;-75
2022/08/14 07:15:49;;;;;;;20.05;10.82;;;22.80;99.90;;;;;;5118701;28;20035;-75
2022/08/14 07:18:27;;;;;;;19.70;12.88;;;22.80;99.90;;;;;;5109710;28;20040;-75
2022/08/14 07:20:55;;;;;;;15.88;10.77;;;22.90;99.90;;;;;;5117935;28;20046;-74
2022/08/14 07:23:22;;;;;;;15.80;11.02;;;23.00;99.90;;;;;;5117558;28;20028;-74
2022/08/14 07:25:50;;;;;;;15.00;11.02;;;23.10;99.90;;;;;;5118757;28;20073;-75
2022/08/14 07:28:19;;;;;;;18.00;11.02;;;23.10;99.90;;;;;;5117352;28;20047;-74
2022/08/14 07:30:45;;;;;;;16.17;10.50;;;23.10;99.90;;;;;;5116665;28;20031;-74
2022/08/14 07:33:12;;;;;;;20.25;10.55;;;23.10;99.90;;;;;;5117436;28;20396;-73
2022/08/14 07:35:39;;;;;;;17.42;10.68;;;23.20;99.90;;;;;;5117536;28;20077;-76
2022/08/14 07:38:06;;;;;;;19.98;12.38;;;23.20;99.90;;;;;;5117710;28;20027;-75
2022/08/14 07:40:33;;;;;;;14.80;10.95;;;23.30;99.90;;;;;;5118639;28;20031;-76
2022/08/14 07:43:00;;;;;;;12.73;11.43;;;23.30;99.90;;;;;;5117063;28;20038;-75
2022/08/14 07:45:27;;;;;;;19.17;11.55;;;23.40;99.90;;;;;;5115266;28;20020;-76
2022/08/14 07:47:56;;;;;;;16.30;9.27;;;23.50;99.90;;;;;;5097780;28;20061;-75
2022/08/14 07:50:23;;;;;;;15.90;10.60;;;23.60;99.90;;;;;;5101134;28;20055;-75
2022/08/14 07:52:49;;;;;;;16.83;10.88;;;23.80;99.90;;;;;;5112542;28;20019;-77
2022/08/14 07:55:17;;;;;;;17.15;9.98;;;24.00;99.90;;;;;;5109488;28;20016;-75
2022/08/14 07:57:44;;;;;;;14.57;9.68;;;24.10;99.90;;;;;;5118029;28;20030;-76
2022/08/14 08:00:14;;;;;;;15.18;10.43;;;24.00;99.90;;;;;;5118349;28;20015;-75
2022/08/14 08:02:42;;;;;;;13.48;10.35;;;23.90;99.90;;;;;;5111584;28;20042;-74
2022/08/14 08:05:11;;;;;;;14.52;9.63;;;24.00;99.90;;;;;;5118399;28;20051;-74
2022/08/14 08:07:38;;;;;;;16.95;9.75;;;24.20;99.90;;;;;;5117378;28;20023;-75
2022/08/14 08:10:32;;;;;;;14.77;9.95;;;24.20;99.90;;;;;;5111569;28;20023;-74
2022/08/14 08:13:04;;;;;;;13.52;9.60;;;24.40;99.90;;;;;;5106863;28;20161;-76
2022/08/14 08:15:33;;;;;;;13.93;10.52;;;24.40;99.90;;;;;;5117869;28;20024;-75
2022/08/14 08:18:03;;;;;;;14.38;9.75;;;24.40;99.90;;;;;;5116731;28;20035;-75
2022/08/14 08:20:31;;;;;;;15.98;9.35;;;24.60;99.90;;;;;;5117955;27;20020;-75
2022/08/14 08:22:58;;;;;;;17.35;9.35;;;24.50;99.90;;;;;;5115199;28;20036;-76
2022/08/14 08:25:25;;;;;;;14.27;9.25;;;24.40;99.90;;;;;;5115789;28;20507;-74
2022/08/14 08:28:02;;;;;;;15.20;10.32;;;24.60;99.90;;;;;;5115399;28;20041;-75
2022/08/14 08:30:31;;;;;;;14.18;9.18;;;24.80;99.90;;;;;;5113621;28;20089;-76
2022/08/14 08:33:02;;;;;;;11.73;8.60;;;25.00;99.90;;;;;;5111243;28;20054;-75
2022/08/14 08:35:33;;;;;;;12.02;8.13;;;25.20;99.90;;;;;;5117679;28;20075;-75
2022/08/14 08:38:07;;;;;;;13.30;7.90;;;25.10;99.90;;;;;;5117530;28;20030;-74
2022/08/14 08:40:40;;;;;;;12.23;9.07;;;25.10;99.90;;;;;;5117363;28;20027;-76
2022/08/14 08:43:08;;;;;;;15.63;9.02;;;25.00;99.90;;;;;;5101630;28;20102;-75
2022/08/14 08:45:35;;;;;;;13.32;8.70;;;25.10;99.90;;;;;;5116500;28;20024;-75
2022/08/14 08:48:03;;;;;;;11.18;8.60;;;25.30;99.90;;;;;;5116853;28;20016;-76
2022/08/14 08:50:30;;;;;;;10.80;8.25;;;25.40;99.90;;;;;;5117563;28;20024;-75
2022/08/14 08:52:58;;;;;;;13.73;7.32;;;25.50;99.90;;;;;;5103450;28;20090;-76
2022/08/14 08:55:28;;;;;;;11.40;7.15;;;25.50;99.90;;;;;;5108455;28;20019;-75
2022/08/14 08:58:00;;;;;;;11.85;7.68;;;25.60;99.90;;;;;;5116053;28;20487;-76
2022/08/14 09:00:31;;;;;;;13.05;8.23;;;25.70;99.90;;;;;;5111568;28;20028;-75
2022/08/14 09:03:19;;;;;;;14.18;7.43;;;25.90;99.90;;;;;;5116096;28;20019;-74
2022/08/14 09:05:56;;;;;;;11.38;7.28;;;25.80;99.90;;;;;;5115152;28;20028;-75
2022/08/14 09:08:28;;;;;;;11.23;6.90;;;25.90;99.90;;;;;;5114604;28;20027;-76
2022/08/14 09:10:55;;;;;;;12.10;7.38;;;26.00;99.90;;;;;;5116007;28;20030;-76
2022/08/14 09:13:25;;;;;;;13.63;8.27;;;26.00;99.90;;;;;;5115953;28;20030;-76
2022/08/14 09:15:53;;;;;;;11.43;7.07;;;26.00;99.90;;;;;;5116151;28;20472;-75
2022/08/14 09:18:25;;;;;;;11.57;7.63;;;26.00;99.90;;;;;;5116677;28;20035;-75
2022/08/14 09:20:54;;;;;;;9.05;7.03;;;25.70;99.90;;;;;;5117461;28;20028;-76
2022/08/14 09:23:20;;;;;;;10.50;7.43;;;25.60;99.90;;;;;;5117314;28;20136;-75
2022/08/14 09:25:48;;;;;;;12.77;7.28;;;25.70;99.90;;;;;;5110237;28;20051;-76
2022/08/14 09:28:17;;;;;;;10.05;6.47;;;25.90;99.90;;;;;;5116606;28;20039;-73
2022/08/14 09:30:55;;;;;;;11.35;7.07;;;26.00;99.90;;;;;;5117133;28;20486;-74
2022/08/14 09:34:16;;;;;;;15.73;7.57;;;26.20;99.90;;;;;;5110378;28;20471;-74
2022/08/14 09:37:06;;;;;;;12.55;8.45;;;26.10;99.90;;;;;;5054732;28;20043;-75
2022/08/14 09:40:17;;;;;;;11.40;7.65;;;26.40;99.90;;;;;;5124081;28;20038;-76
2022/08/14 09:43:33;;;;;;;10.50;7.38;;;26.30;99.90;;;;;;5111597;28;20483;-76
2022/08/14 09:46:05;;;;;;;10.77;6.63;;;26.40;99.90;;;;;;5082064;28;20028;-75
2022/08/14 09:48:32;;;;;;;14.07;7.68;;;26.20;99.90;;;;;;5117105;28;20085;-76
2022/08/14 09:50:59;;;;;;;11.48;7.80;;;26.10;99.90;;;;;;5115775;28;20030;-75
2022/08/14 09:53:46;;;;;;;11.40;7.05;;;26.10;99.90;;;;;;5115841;28;20110;-76
2022/08/14 09:56:13;;;;;;;9.48;6.72;;;26.20;99.90;;;;;;5113819;28;20027;-76
2022/08/14 09:58:44;;;;;;;11.02;6.60;;;26.40;99.90;;;;;;5117184;28;20036;-75
2022/08/14 10:01:14;;;;;;;11.85;5.97;;;26.80;99.90;;;;;;5116572;28;20387;-75
2022/08/14 10:03:52;;;;;;;12.00;7.07;;;26.80;99.90;;;;;;5117716;28;20529;-76
2022/08/14 10:06:24;;;;;;;11.23;6.53;;;27.00;99.90;;;;;;5120473;28;20028;-76
2022/08/14 10:08:53;;;;;;;11.02;5.97;;;27.40;99.90;;;;;;5120491;28;20023;-76
2022/08/14 10:11:22;;;;;;;12.27;7.07;;;27.40;99.90;;;;;;5118826;28;20047;-76
2022/08/14 10:13:53;;;;;;;7.75;6.10;;;27.30;99.90;;;;;;5109809;28;20024;-75
2022/08/14 10:16:27;;;;;;;;;;;27.40;99.90;;;;;;5119493;28;20016;-76
2022/08/14 10:19:11;;;;;;;10.23;5.45;;;27.60;99.90;;;;;;5109462;28;19904;-76
2022/08/14 10:21:40;;;;;;;11.15;6.55;;;27.40;99.90;;;;;;5120318;28;20455;-76
2022/08/14 10:24:09;;;;;;;9.35;6.00;;;27.00;99.90;;;;;;5119319;28;20505;-76
2022/08/14 10:26:35;;;;;;;10.45;5.25;;;26.90;99.90;;;;;;5115861;28;20181;-75
2022/08/14 10:29:09;;;;;;;9.77;6.38;;;26.70;99.90;;;;;;5111330;28;20023;-75
2022/08/14 10:31:36;;;;;;;10.30;6.75;;;26.60;99.90;;;;;;5118625;28;20141;-75
2022/08/14 10:34:05;;;;;;;13.57;6.78;;;26.60;99.90;;;;;;5115390;28;20012;-75
2022/08/14 10:36:34;;;;;;;12.15;6.57;;;26.60;99.90;;;;;;5119955;28;20024;-75
2022/08/14 10:39:04;;;;;;;10.70;6.53;;;26.60;99.90;;;;;;5109726;28;20031;-75
2022/08/14 10:41:40;;;;;;;10.97;6.70;;;26.60;99.90;;;;;;5119655;28;20130;-73
2022/08/14 10:44:16;;;;;;;8.23;5.72;;;26.60;99.90;;;;;;5111667;28;20265;-72
2022/08/14 10:46:51;;;;;;;10.88;5.68;;;26.70;99.90;;;;;;5106427;28;20023;-73
2022/08/14 10:49:23;;;;;;;8.98;5.97;;;26.90;99.90;;;;;;5115451;28;20023;-73
2022/08/14 10:52:04;;;;;;;13.23;5.82;;;27.40;99.90;;;;;;5114760;28;20060;-72
2022/08/14 10:54:36;;;;;;;11.43;5.63;;;27.50;99.90;;;;;;5108371;28;20023;-73
2022/08/14 10:57:21;;;;;;;10.82;5.78;;;27.60;99.90;;;;;;5114874;28;20054;-73
2022/08/14 11:00:12;;;;;;;9.80;5.78;;;27.80;99.90;;;;;;5114298;28;20041;-74
2022/08/14 11:02:40;;;;;;;11.02;5.07;;;28.10;99.90;;;;;;5112483;28;20119;-75
2022/08/14 11:05:17;;;;;;;10.77;5.20;;;28.30;99.90;;;;;;5112232;28;20055;-73
2022/08/14 11:07:56;;;;;;;9.43;5.93;;;28.20;99.90;;;;;;5109989;28;20044;-73
2022/08/14 11:10:26;;;;;;;12.18;6.32;;;28.30;99.90;;;;;;5119169;28;20533;-72
2022/08/14 11:12:56;;;;;;;10.33;5.83;;;28.20;99.90;;;;;;5118162;28;20035;-72
2022/08/14 11:15:28;;;;;;;;;;;27.80;99.90;;;;;;5117643;28;20016;-73
2022/08/14 11:17:55;;;;;;;7.72;5.32;;;27.60;99.90;;;;;;5107780;28;19904;-77
2022/08/14 11:20:26;;;;;;;8.63;5.65;;;27.50;99.90;;;;;;5110031;28;20383;-72
2022/08/14 11:22:54;;;;;;;8.95;5.57;;;27.40;99.90;;;;;;5118999;28;20131;-73
2022/08/14 11:25:22;;;;;;;11.38;5.70;;;27.50;99.90;;;;;;5107207;28;20059;-73
2022/08/14 11:27:53;;;;;;;9.07;5.78;;;27.70;99.90;;;;;;5118584;28;20031;-73
2022/08/14 11:30:22;;;;;;;11.82;5.65;;;28.00;99.90;;;;;;5112830;28;20020;-73
2022/08/14 11:32:50;;;;;;;12.77;5.90;;;28.30;99.90;;;;;;5116754;28;20027;-73
2022/08/14 11:35:25;;;;;;;10.30;5.43;;;28.30;99.90;;;;;;5118802;28;20022;-73
2022/08/14 11:38:00;;;;;;;7.75;5.22;;;28.20;99.90;;;;;;5118802;28;20034;-74
2022/08/14 11:40:29;;;;;;;6.20;4.78;;;28.10;99.90;;;;;;5106777;28;20051;-73
2022/08/14 11:42:56;;;;;;;11.45;5.55;;;28.20;99.90;;;;;;5116407;28;20126;-74
2022/08/14 11:45:24;;;;;;;10.13;5.13;;;28.20;99.90;;;;;;5116800;28;20046;-74
2022/08/14 11:47:55;;;;;;;10.18;5.90;;;28.20;99.90;;;;;;5118235;28;20031;-73
2022/08/14 11:50:32;;;;;;;7.10;5.00;;;28.10;99.90;;;;;;5118513;28;20019;-73
2022/08/14 11:53:01;;;;;;;10.15;5.22;;;28.00;99.90;;;;;;5118526;28;20023;-74
2022/08/14 11:55:36;;;;;;;16.35;5.70;;;28.10;99.90;;;;;;5117316;28;20046;-73
2022/08/14 11:58:08;;;;;;;13.35;5.55;;;27.90;99.90;;;;;;5118532;28;20490;-73
2022/08/14 12:00:49;;;;;;;11.73;5.35;;;27.90;99.90;;;;;;5105286;28;20391;-74
2022/08/14 12:03:15;;;;;;;12.35;5.07;;;28.30;99.90;;;;;;5105675;28;20050;-79
2022/08/14 12:05:41;;;;;;;9.57;4.90;;;28.70;99.90;;;;;;5114087;28;20402;-73
2022/08/14 12:08:09;;;;;;;9.27;4.90;;;28.60;99.90;;;;;;5110969;28;20022;-75
2022/08/14 12:10:41;;;;;;;11.77;5.15;;;28.50;99.90;;;;;;5115429;28;20016;-73
2022/08/14 12:13:12;;;;;;;11.07;5.63;;;28.60;99.90;;;;;;5109683;28;20489;-73
2022/08/14 12:15:38;;;;;;;13.30;5.05;;;28.60;99.90;;;;;;5118077;28;20045;-73
2022/08/14 12:18:05;;;;;;;8.82;4.05;;;28.80;99.90;;;;;;5116493;28;20056;-74
2022/08/14 12:20:37;;;;;;;11.98;4.13;;;29.10;99.80;;;;;;5118209;28;20027;-72
2022/08/14 12:23:18;;;;;;;10.32;4.78;;;29.40;99.40;;;;;;5117929;28;20020;-73
2022/08/14 12:25:44;;;;;;;13.60;4.45;;;29.40;98.90;;;;;;5117556;28;20075;-71
2022/08/14 12:28:12;;;;;;;15.30;4.32;;;29.20;99.30;;;;;;5116257;28;20077;-71
2022/08/14 12:30:47;;;;;;;12.15;5.10;;;29.00;99.00;;;;;;5116833;28;20030;-71
2022/08/14 12:33:31;;;;;;;12.23;4.75;;;28.50;99.20;;;;;;5116163;28;20069;-71
2022/08/14 12:35:59;;;;;;;13.27;5.10;;;28.20;99.80;;;;;;5116759;28;20019;-73
2022/08/14 12:38:40;;;;;;;9.43;4.22;;;28.10;99.90;;;;;;5116289;28;20502;-72
2022/08/14 12:41:12;;;;;;;15.05;4.88;;;27.90;99.90;;;;;;5117620;28;20019;-70
2022/08/14 12:43:46;;;;;;;11.10;5.25;;;27.90;99.90;;;;;;5117528;28;20507;-73
2022/08/14 12:46:29;;;;;;;12.07;4.18;;;28.20;99.70;;;;;;5117556;28;20020;-74
2022/08/14 12:48:57;;;;;;;10.20;3.90;;;28.30;98.30;;;;;;5119377;28;20028;-74
2022/08/14 12:51:25;;;;;;;9.55;4.03;;;28.30;98.60;;;;;;5112807;28;20072;-73
2022/08/14 12:53:53;;;;;;;7.72;4.22;;;28.30;99.10;;;;;;5116541;28;20030;-74
2022/08/14 12:56:20;;;;;;;6.78;4.70;;;28.50;99.00;;;;;;5112877;28;20019;-74
2022/08/14 12:58:57;;;;;;;7.75;4.10;;;28.80;99.40;;;;;;5111533;28;20403;-74